createdAt,value
2017-09-27T00:01:09.506Z,44.23
2017-09-27T00:03:36.999Z,45.40
2017-09-27T00:06:04.454Z,42.72
2017-09-27T00:08:31.894Z,42.28
2017-09-27T00:10:59.334Z,40.90
2017-09-27T00:13:26.790Z,42.47
2017-09-27T00:15:54.236Z,41.40
2017-09-27T00:18:22.459Z,43.47
2017-09-27T00:20:49.899Z,44.53
2017-09-27T00:23:17.366Z,41.92
2017-09-27T00:25:44.807Z,41.72
2017-09-27T00:28:12.303Z,42.60
2017-09-27T00:30:39.752Z,43.87
2017-09-27T00:33:07.209Z,41.65
2017-09-27T00:35:34.646Z,41.85
2017-09-27T00:38:02.081Z,43.07
2017-09-27T00:40:29.647Z,42.55
2017-09-27T00:42:57.118Z,44.65
2017-09-27T00:45:24.583Z,42.78
2017-09-27T00:47:52.113Z,42.13
2017-09-27T00:50:19.603Z,45.75
2017-09-27T00:52:47.048Z,43.22
2017-09-27T00:55:14.482Z,41.05
2017-09-27T00:57:41.958Z,41.47
2017-09-27T01:00:09.415Z,43.33
2017-09-27T01:02:36.863Z,43.33
2017-09-27T01:05:04.357Z,41.63
2017-09-27T01:07:31.887Z,44.45
2017-09-27T01:09:59.354Z,43.15
2017-09-27T01:12:26.795Z,42.10
2017-09-27T01:14:54.340Z,43.03
2017-09-27T01:17:21.809Z,42.10
2017-09-27T01:19:49.249Z,42.45
2017-09-27T01:22:16.682Z,42.07
2017-09-27T02:53:47.550Z,47.40
2017-09-27T02:56:14.992Z,44.30
2017-09-27T02:58:42.446Z,46.80
2017-09-27T03:01:09.910Z,45.00
2017-09-27T03:03:37.358Z,45.80
2017-09-27T03:06:04.817Z,45.08
2017-09-27T03:08:32.289Z,44.47
2017-09-27T03:10:59.731Z,47.67
2017-09-27T03:13:27.181Z,47.15
2017-09-27T03:15:54.646Z,46.92
2017-09-27T03:18:22.105Z,45.70
2017-09-27T03:20:49.565Z,44.95
2017-09-27T03:23:16.995Z,45.22
2017-09-27T03:25:44.463Z,49.90
2017-09-27T03:28:11.904Z,43.85
2017-09-27T03:30:39.350Z,46.75
2017-09-27T03:33:06.843Z,46.78
2017-09-27T03:35:34.386Z,43.60
2017-09-27T03:38:01.833Z,46.35
2017-09-27T03:40:29.313Z,45.80
2017-09-27T03:42:56.875Z,45.50
2017-09-27T03:45:24.416Z,46.23
2017-09-27T03:47:51.865Z,44.78
2017-09-27T03:50:19.292Z,46.22
2017-09-27T03:52:46.750Z,43.95
2017-09-27T03:55:14.193Z,45.33
2017-09-27T03:57:42.436Z,45.08
2017-09-27T04:00:10.010Z,45.50
2017-09-27T04:02:37.467Z,45.15
2017-09-27T04:05:05.712Z,44.20
2017-09-27T04:07:33.194Z,48.00
2017-09-27T04:10:00.690Z,45.50
2017-09-27T04:12:28.175Z,50.25
2017-09-27T04:14:55.647Z,45.30
2017-09-27T04:17:23.192Z,44.17
2017-09-27T04:19:50.658Z,48.15
2017-09-27T04:22:18.099Z,48.63
2017-09-27T04:24:45.580Z,46.83
2017-09-27T04:27:13.572Z,47.60
2017-09-27T04:29:41.091Z,46.60
2017-09-27T04:32:08.541Z,46.85
2017-09-27T04:34:35.978Z,45.70
2017-09-27T04:37:03.406Z,46.92
2017-09-27T04:39:30.862Z,47.65
2017-09-27T04:41:59.067Z,46.00
2017-09-27T04:44:26.510Z,47.03
2017-09-27T04:46:54.035Z,45.33
2017-09-27T04:49:22.259Z,48.42
2017-09-27T04:51:49.699Z,50.45
2017-09-27T04:54:17.178Z,48.20
2017-09-27T04:56:44.650Z,48.58
2017-09-27T04:59:12.206Z,48.07
2017-09-27T05:01:39.643Z,52.08
2017-09-27T05:04:07.226Z,50.42
2017-09-27T05:06:34.667Z,49.28
2017-09-27T05:09:02.106Z,50.03
2017-09-27T05:11:29.545Z,49.78
2017-09-27T05:13:57.118Z,51.75
2017-09-27T05:16:24.616Z,51.50
2017-09-27T05:18:52.068Z,49.88
2017-09-27T05:21:19.534Z,48.55
2017-09-27T05:23:47.066Z,53.13
2017-09-27T05:26:14.529Z,49.88
2017-09-27T05:28:41.967Z,50.00
2017-09-27T05:31:09.410Z,49.53
2017-09-27T05:33:36.914Z,50.53
2017-09-27T05:36:05.126Z,50.00
2017-09-27T05:38:32.566Z,49.63
2017-09-27T05:41:00.790Z,52.58
2017-09-27T05:43:28.336Z,50.92
2017-09-27T05:45:55.795Z,50.22
2017-09-27T05:48:23.306Z,50.03
2017-09-27T05:50:51.535Z,52.27
2017-09-27T05:53:19.100Z,51.28
2017-09-27T05:55:46.573Z,50.60
2017-09-27T05:58:14.116Z,52.95
2017-09-27T06:00:41.571Z,53.70
2017-09-27T06:03:09.020Z,51.08
2017-09-27T06:05:36.604Z,56.00
2017-09-27T06:08:04.043Z,51.85
2017-09-27T06:10:31.583Z,56.22
2017-09-27T06:12:59.123Z,50.75
2017-09-27T06:15:26.626Z,52.97
2017-09-27T06:17:54.099Z,55.22
2017-09-27T06:20:21.526Z,50.90
2017-09-27T06:22:48.993Z,52.10
2017-09-27T06:25:16.449Z,52.90
2017-09-27T06:27:43.923Z,53.55
2017-09-27T06:30:11.468Z,53.30
2017-09-27T06:32:38.908Z,50.97
2017-09-27T06:35:07.125Z,52.88
2017-09-27T06:37:34.614Z,48.58
2017-09-27T06:40:02.126Z,53.93
2017-09-27T06:42:29.608Z,49.22
2017-09-27T06:44:57.891Z,54.97
2017-09-27T06:47:25.338Z,54.80
2017-09-27T06:49:52.778Z,55.28
2017-09-27T06:52:20.302Z,54.78
2017-09-27T06:54:47.720Z,54.03
2017-09-27T06:57:16.688Z,56.17
2017-09-27T06:59:44.264Z,48.90
2017-09-27T07:02:11.823Z,51.72
2017-09-27T07:04:39.267Z,53.58
2017-09-27T07:07:06.787Z,51.83
2017-09-27T07:09:35.019Z,54.17
2017-09-27T07:12:02.560Z,55.85
2017-09-27T07:14:30.134Z,58.17
2017-09-27T07:16:57.580Z,54.80
2017-09-27T07:19:25.070Z,55.25
2017-09-27T07:21:52.526Z,58.33
2017-09-27T07:24:19.988Z,55.80
2017-09-27T07:26:47.427Z,50.97
2017-09-27T07:29:14.902Z,57.22
2017-09-27T07:31:42.434Z,57.03
2017-09-27T07:34:09.885Z,58.42
2017-09-27T07:36:37.347Z,59.25
2017-09-27T07:39:04.802Z,58.65
2017-09-27T07:41:32.299Z,59.00
2017-09-27T07:43:59.871Z,54.83
2017-09-27T07:46:28.119Z,56.20
2017-09-27T07:48:55.666Z,54.53
2017-09-27T07:51:23.115Z,61.85
2017-09-27T07:53:50.576Z,62.45
2017-09-27T07:56:18.021Z,64.43
2017-09-27T07:58:45.585Z,61.65
2017-09-27T08:01:13.034Z,60.27
2017-09-27T08:03:40.489Z,60.40
2017-09-27T08:06:07.940Z,60.20
2017-09-27T08:08:35.504Z,60.90
2017-09-27T08:11:03.082Z,59.45
2017-09-27T08:13:31.087Z,58.87
2017-09-27T08:15:58.528Z,60.70
2017-09-27T08:18:26.727Z,59.80
2017-09-27T08:20:54.949Z,64.22
2017-09-27T08:23:22.383Z,58.60
2017-09-27T08:25:49.995Z,63.28
2017-09-27T08:28:17.438Z,65.95
2017-09-27T08:30:44.906Z,64.35
2017-09-27T08:33:12.326Z,60.65
2017-09-27T08:35:39.780Z,60.45
2017-09-27T08:38:07.220Z,61.75
2017-09-27T08:40:34.705Z,59.03
2017-09-27T08:43:02.159Z,60.75
2017-09-27T08:45:29.588Z,63.50
2017-09-27T08:47:57.028Z,59.35
2017-09-27T08:50:25.235Z,59.95
2017-09-27T08:52:52.725Z,56.95
2017-09-27T08:55:20.165Z,58.42
2017-09-27T08:57:47.605Z,56.40
2017-09-27T09:00:15.053Z,57.20
2017-09-27T09:02:42.515Z,54.85
2017-09-27T09:05:10.012Z,55.42
2017-09-27T09:07:37.479Z,56.63
2017-09-27T09:10:04.951Z,54.20
2017-09-27T09:12:32.395Z,50.33
2017-09-27T09:14:59.939Z,55.33
2017-09-27T09:17:27.475Z,50.08
2017-09-27T09:19:54.919Z,51.33
2017-09-27T09:22:22.375Z,49.53
2017-09-27T09:24:49.814Z,46.65
2017-09-27T09:27:17.342Z,47.15
2017-09-27T09:29:44.980Z,50.28
2017-09-27T09:32:12.415Z,50.12
2017-09-27T09:34:39.868Z,46.20
2017-09-27T09:37:07.370Z,46.95
2017-09-27T09:39:35.843Z,48.13
2017-09-27T09:42:03.355Z,45.88
2017-09-27T09:44:30.808Z,55.35
2017-09-27T09:46:58.278Z,46.53
2017-09-27T09:49:25.762Z,45.35
2017-09-27T09:51:53.199Z,41.30
2017-09-27T09:54:20.654Z,44.22
2017-09-27T09:56:48.097Z,42.75
2017-09-27T09:59:15.535Z,41.72
2017-09-27T10:01:42.979Z,42.55
2017-09-27T10:04:11.210Z,43.38
2017-09-27T10:06:38.651Z,42.97
2017-09-27T10:09:06.103Z,44.50
2017-09-27T10:11:33.547Z,45.47
2017-09-27T10:14:01.378Z,44.35
2017-09-27T10:16:29.607Z,43.00
2017-09-27T10:18:57.051Z,41.28
2017-09-27T10:21:24.499Z,42.25
2017-09-27T10:23:51.939Z,40.80
2017-09-27T10:26:19.431Z,44.17
2017-09-27T10:28:46.895Z,38.65
2017-09-27T10:31:14.470Z,39.72
2017-09-27T10:33:41.911Z,40.97
2017-09-27T10:36:09.392Z,41.63
2017-09-27T10:38:36.875Z,43.40
2017-09-27T10:41:04.355Z,44.80
2017-09-27T10:43:32.610Z,40.88
2017-09-27T10:46:00.067Z,41.80
2017-09-27T10:48:27.566Z,42.92
2017-09-27T10:50:55.082Z,40.30
2017-09-27T10:53:22.583Z,41.80
2017-09-27T10:55:50.019Z,39.57
2017-09-27T10:58:17.454Z,39.00
2017-09-27T11:00:45.139Z,41.35
2017-09-27T11:03:12.617Z,39.83
2017-09-27T11:05:40.069Z,39.80
2017-09-27T11:08:07.796Z,40.30
2017-09-27T11:10:35.395Z,40.90
2017-09-27T11:13:02.845Z,39.58
2017-09-27T11:15:30.308Z,41.75
2017-09-27T11:17:57.747Z,39.20
2017-09-27T11:20:25.186Z,37.50
2017-09-27T11:22:52.624Z,36.13
2017-09-27T11:25:20.071Z,41.20
2017-09-27T11:27:48.382Z,39.45
2017-09-27T11:30:15.820Z,38.40
2017-09-27T11:32:43.315Z,38.35
2017-09-27T11:35:10.790Z,38.87
2017-09-27T11:37:38.230Z,39.15
2017-09-27T11:40:05.683Z,39.25
2017-09-27T11:42:33.123Z,37.05
2017-09-27T11:45:00.594Z,40.67
2017-09-27T11:47:28.054Z,37.58
2017-09-27T11:49:55.611Z,37.38
2017-09-27T11:52:23.061Z,38.30
2017-09-27T11:54:50.518Z,37.53
2017-09-27T11:57:17.970Z,37.00
2017-09-27T11:59:45.412Z,36.78
2017-09-27T12:02:12.846Z,38.10
2017-09-27T12:04:40.289Z,37.85
2017-09-27T12:07:07.923Z,38.50
2017-09-27T12:09:35.376Z,36.20
2017-09-27T12:12:02.819Z,36.78
2017-09-27T12:14:30.270Z,35.60
2017-09-27T12:16:57.742Z,34.75
2017-09-27T12:19:25.201Z,35.38
2017-09-27T12:21:52.634Z,35.03
2017-09-27T12:24:20.122Z,35.33
2017-09-27T12:26:47.638Z,34.45
2017-09-27T12:29:15.086Z,31.73
2017-09-27T12:31:42.575Z,34.80
2017-09-27T12:34:10.023Z,35.50
2017-09-27T12:36:38.521Z,32.40
2017-09-27T12:39:06.079Z,32.70
2017-09-27T12:41:33.574Z,31.73
2017-09-27T12:44:01.472Z,33.30
2017-09-27T12:46:28.969Z,30.60
2017-09-27T12:48:56.406Z,30.00
2017-09-27T12:51:23.941Z,30.03
2017-09-27T12:53:51.418Z,32.38
2017-09-27T12:56:18.866Z,28.52
2017-09-27T12:58:46.298Z,29.37
2017-09-27T13:01:13.764Z,31.35
2017-09-27T13:03:41.223Z,30.37
2017-09-27T13:06:08.784Z,29.92
2017-09-27T13:08:36.207Z,30.67
2017-09-27T13:11:04.431Z,28.62
2017-09-27T13:13:31.960Z,27.13
2017-09-27T13:16:00.311Z,28.50
2017-09-27T13:18:28.532Z,29.37
2017-09-27T13:20:56.090Z,29.45
2017-09-27T13:23:23.613Z,30.10
2017-09-27T13:25:51.060Z,28.20
2017-09-27T13:28:19.323Z,29.70
2017-09-27T13:30:46.848Z,30.95
2017-09-27T13:33:14.294Z,31.00
2017-09-27T13:35:41.739Z,31.25
2017-09-27T13:38:09.190Z,31.50
2017-09-27T13:40:36.779Z,31.07
2017-09-27T13:43:04.243Z,31.60
2017-09-27T13:45:31.714Z,33.70
2017-09-27T13:47:59.252Z,31.50
2017-09-27T13:50:26.690Z,33.10
2017-09-27T13:52:54.168Z,33.60
2017-09-27T13:55:21.620Z,33.75
2017-09-27T13:57:49.080Z,34.08
2017-09-27T14:00:16.520Z,33.25
2017-09-27T14:02:43.991Z,34.10
2017-09-27T14:05:11.439Z,32.57
2017-09-27T14:07:38.909Z,34.00
2017-09-27T14:10:06.368Z,33.20
2017-09-27T14:12:33.909Z,34.78
2017-09-27T14:15:01.370Z,35.50
2017-09-27T14:17:28.807Z,34.78
2017-09-27T14:19:56.260Z,35.05
2017-09-27T14:22:23.711Z,35.75
2017-09-27T14:24:51.269Z,36.67
2017-09-27T14:27:18.724Z,35.50
2017-09-27T14:29:46.169Z,35.50
2017-09-27T14:32:13.786Z,36.72
2017-09-27T14:34:41.219Z,37.90
2017-09-27T14:37:08.664Z,34.33
2017-09-27T14:39:36.115Z,37.17
2017-09-27T14:42:03.555Z,36.80
2017-09-27T14:44:31.048Z,35.57
2017-09-27T14:46:58.605Z,37.85
2017-09-27T14:49:26.069Z,36.15
2017-09-27T14:51:53.515Z,36.58
2017-09-27T14:54:20.975Z,36.88
2017-09-27T14:56:48.529Z,37.53
2017-09-27T14:59:15.976Z,37.47
2017-09-27T15:01:43.438Z,37.00
2017-09-27T15:04:10.884Z,38.80
2017-09-27T15:06:38.345Z,36.70
2017-09-27T15:09:05.778Z,37.80
2017-09-27T15:11:33.222Z,36.83
2017-09-27T15:14:00.671Z,37.40
2017-09-27T15:16:28.981Z,36.90
2017-09-27T15:18:56.579Z,38.80
2017-09-27T15:21:24.091Z,36.05
2017-09-27T15:23:51.536Z,39.85
2017-09-27T15:26:18.976Z,36.35
2017-09-27T15:28:47.198Z,36.87
2017-09-27T15:31:14.655Z,37.00
2017-09-27T15:33:42.106Z,38.88
2017-09-27T15:36:09.661Z,37.83
2017-09-27T15:38:37.131Z,38.40
2017-09-27T15:41:04.651Z,37.40
2017-09-27T15:43:32.278Z,38.60
2017-09-27T15:45:59.732Z,37.63
2017-09-27T15:48:27.288Z,39.47
2017-09-27T15:50:55.006Z,38.28
2017-09-27T15:53:22.600Z,38.10
2017-09-27T15:55:50.061Z,38.83
2017-09-27T15:58:17.490Z,39.75
2017-09-27T16:00:44.937Z,39.42
2017-09-27T16:03:12.547Z,37.17
2017-09-27T16:05:40.174Z,39.15
2017-09-27T16:08:07.820Z,39.60
2017-09-27T16:10:35.259Z,37.08
2017-09-27T16:13:02.730Z,39.90
2017-09-27T16:15:30.179Z,38.85
2017-09-27T16:17:57.663Z,37.85
2017-09-27T16:20:25.225Z,40.47
2017-09-27T16:22:52.680Z,39.00
2017-09-27T16:25:20.134Z,39.67
2017-09-27T16:27:47.600Z,39.42
2017-09-27T16:30:15.063Z,41.08
2017-09-27T16:32:42.506Z,41.10
2017-09-27T16:35:09.963Z,41.72
2017-09-27T16:37:37.418Z,41.58
2017-09-27T16:40:04.851Z,43.72
2017-09-27T16:42:32.322Z,43.65
2017-09-27T16:44:59.786Z,47.30
2017-09-27T16:47:27.232Z,44.60
2017-09-27T16:49:54.713Z,44.53
2017-09-27T16:52:22.224Z,43.53
2017-09-27T16:54:49.668Z,43.60
2017-09-27T16:57:17.904Z,46.30
2017-09-27T16:59:45.351Z,43.65
2017-09-27T17:02:12.800Z,46.90
2017-09-27T17:04:40.367Z,43.33
2017-09-27T17:07:07.914Z,48.30
2017-09-27T17:09:35.347Z,45.15
2017-09-27T17:12:02.795Z,46.78
2017-09-27T17:14:30.282Z,45.88
2017-09-27T17:16:57.734Z,48.58
2017-09-27T17:19:25.198Z,45.90
2017-09-27T17:21:52.730Z,46.72
2017-09-27T17:24:20.174Z,46.40
2017-09-27T17:26:47.626Z,45.65
2017-09-27T17:29:15.143Z,46.13
2017-09-27T17:31:42.591Z,48.92
2017-09-27T17:34:10.111Z,45.05
2017-09-27T17:36:37.559Z,46.05
2017-09-27T17:39:05.058Z,48.08
2017-09-27T17:41:32.502Z,47.40
2017-09-27T17:44:00.036Z,49.72
2017-09-27T17:46:27.557Z,51.13
2017-09-27T17:48:55.816Z,49.00
2017-09-27T17:51:23.256Z,51.28
2017-09-27T17:53:50.797Z,50.45
2017-09-27T17:56:18.236Z,50.40
2017-09-27T17:58:45.716Z,53.90
2017-09-27T18:01:13.155Z,53.65
2017-09-27T18:03:40.638Z,53.15
2017-09-27T18:06:22.815Z,54.97
2017-09-27T18:08:51.062Z,54.30
2017-09-27T18:11:21.863Z,54.97
2017-09-27T18:14:08.111Z,53.70
2017-09-27T18:16:45.447Z,54.45
2017-09-27T18:19:12.895Z,55.03
2017-09-27T18:21:40.343Z,56.67
2017-09-27T18:24:07.891Z,52.55
2017-09-27T18:26:35.330Z,55.60
2017-09-27T18:29:02.774Z,54.15
2017-09-27T18:31:30.226Z,52.22
2017-09-27T18:33:58.449Z,52.65
2017-09-27T18:36:25.872Z,55.15
2017-09-27T18:38:53.351Z,53.95
2017-09-27T18:41:20.926Z,51.53
2017-09-27T18:43:48.375Z,53.22
2017-09-27T18:46:15.827Z,52.90
2017-09-27T18:48:44.279Z,54.30
2017-09-27T18:51:11.764Z,53.63
2017-09-27T18:53:39.222Z,52.95
2017-09-27T18:56:06.662Z,55.80
2017-09-27T18:58:34.211Z,53.20
2017-09-27T19:01:01.667Z,54.25
2017-09-27T19:03:29.161Z,57.10
2017-09-27T19:05:56.598Z,56.35
2017-09-27T19:08:24.035Z,57.08
2017-09-27T19:10:51.595Z,59.47
2017-09-27T19:13:19.157Z,56.72
2017-09-27T19:15:46.631Z,60.70
2017-09-27T19:18:14.066Z,60.38
2017-09-27T19:20:41.546Z,62.90
2017-09-27T19:23:09.004Z,59.47
2017-09-27T19:25:36.457Z,61.20
2017-09-27T19:28:03.883Z,60.10
2017-09-27T19:30:31.343Z,59.83
2017-09-27T19:32:58.814Z,61.25
2017-09-27T19:35:27.072Z,60.97
2017-09-27T19:37:54.536Z,60.60
2017-09-27T19:40:22.064Z,59.20
2017-09-27T19:42:49.488Z,60.60
2017-09-27T19:45:17.723Z,63.58
2017-09-27T19:47:45.199Z,67.70
2017-09-27T19:50:13.434Z,65.80
2017-09-27T19:52:41.127Z,67.68
2017-09-27T19:55:08.712Z,63.55
2017-09-27T19:57:36.158Z,64.55
2017-09-27T20:00:04.399Z,66.33
2017-09-27T20:02:31.882Z,66.37
2017-09-27T20:04:59.334Z,65.30
2017-09-27T20:07:26.812Z,65.28
2017-09-27T20:09:54.267Z,64.80
2017-09-27T20:12:21.711Z,67.60
2017-09-27T20:14:49.155Z,70.93
2017-09-27T20:17:16.621Z,74.90
2017-09-27T20:19:44.062Z,70.87
2017-09-27T20:22:11.647Z,71.00
2017-09-27T20:24:39.099Z,67.40
2017-09-27T20:27:06.577Z,66.53
2017-09-27T20:29:34.088Z,65.20
2017-09-27T20:32:01.556Z,66.43
2017-09-27T20:34:29.142Z,65.85
2017-09-27T20:36:56.684Z,66.25
2017-09-27T20:39:24.142Z,61.50
2017-09-27T20:41:51.602Z,59.53
2017-09-27T20:44:19.094Z,61.42
2017-09-27T20:46:47.447Z,58.28
2017-09-27T20:49:14.896Z,57.30
2017-09-27T20:51:42.355Z,58.90
2017-09-27T20:54:09.807Z,55.57
2017-09-27T20:56:37.241Z,57.33
2017-09-27T20:59:04.759Z,58.35
2017-09-27T21:01:33.160Z,54.40
2017-09-27T21:04:00.707Z,53.45
2017-09-27T21:06:28.215Z,51.95
2017-09-27T21:08:55.739Z,50.63
2017-09-27T21:11:23.239Z,48.92
2017-09-27T21:13:50.771Z,48.47
2017-09-27T21:16:18.244Z,46.25
2017-09-27T21:18:45.682Z,48.25
2017-09-27T21:21:13.127Z,45.83
2017-09-27T21:23:40.651Z,45.50
2017-09-27T21:26:08.886Z,45.63
2017-09-27T21:28:36.498Z,45.72
2017-09-27T21:31:04.745Z,43.00
2017-09-27T21:33:32.206Z,43.53
2017-09-27T21:35:59.746Z,42.83
2017-09-27T21:38:27.211Z,42.35
2017-09-27T21:40:56.147Z,42.45
2017-09-27T21:43:23.611Z,42.22
2017-09-27T21:45:51.062Z,42.90
2017-09-27T21:48:18.538Z,41.20
2017-09-27T21:50:45.976Z,41.15
2017-09-27T21:53:13.425Z,40.05
2017-09-27T21:55:41.047Z,39.42
2017-09-27T21:58:08.495Z,41.45
2017-09-27T22:00:36.219Z,41.42
2017-09-27T22:03:03.693Z,39.28
2017-09-27T22:05:31.259Z,39.92
2017-09-27T22:07:58.698Z,40.80
2017-09-27T22:10:26.208Z,39.83
2017-09-27T22:12:53.654Z,39.70
2017-09-27T22:15:21.251Z,37.75
2017-09-27T22:17:48.811Z,40.25
2017-09-27T22:20:16.271Z,40.92
2017-09-27T22:22:43.836Z,38.80
2017-09-27T22:25:11.359Z,39.70
2017-09-27T22:27:38.820Z,38.45
2017-09-27T22:30:06.271Z,39.40
2017-09-27T22:32:33.727Z,39.38
2017-09-27T22:35:01.189Z,37.60
2017-09-27T22:37:28.646Z,39.78
2017-09-27T22:39:56.111Z,40.88
2017-09-27T22:42:23.574Z,40.67
2017-09-27T22:44:51.020Z,39.10
2017-09-27T22:47:18.465Z,38.75
2017-09-27T22:49:45.951Z,39.35
2017-09-27T22:52:13.415Z,39.70
2017-09-27T22:54:40.873Z,39.13
2017-09-27T22:57:08.331Z,38.83
2017-09-27T22:59:35.774Z,39.73
2017-09-27T23:02:03.229Z,40.10
2017-09-27T23:04:30.687Z,38.88
2017-09-27T23:06:58.230Z,41.10
2017-09-27T23:09:25.680Z,39.88
2017-09-27T23:11:53.145Z,41.05
2017-09-27T23:14:20.599Z,40.58
2017-09-27T23:16:49.595Z,40.90
2017-09-27T23:19:17.050Z,40.70
2017-09-27T23:21:44.511Z,42.15
2017-09-27T23:24:11.968Z,41.63
2017-09-27T23:26:39.430Z,39.95
2017-09-27T23:29:06.866Z,41.55
2017-09-27T23:31:34.324Z,42.45
2017-09-27T23:34:01.763Z,41.72
2017-09-27T23:36:29.217Z,40.85
2017-09-27T23:38:56.668Z,41.37
2017-09-27T23:41:24.889Z,42.60
2017-09-27T23:43:52.339Z,43.40
2017-09-27T23:46:19.866Z,41.97
2017-09-27T23:48:47.317Z,39.37
2017-09-27T23:51:14.778Z,42.92
2017-09-27T23:53:42.237Z,42.58
2017-09-27T23:56:09.671Z,42.58
2017-09-27T23:58:37.891Z,41.30
